Time;durP1;ratioP1;P1;durP2;ratioP2;P2;SDS_P1;SDS_P2;PMS_P1;PMS_P2;Temp;Humidity;BMP_temperature;BMP_pressure;BME280_temperature;BME280_humidity;BME280_pressure;Samples;Min_cycle;Max_cycle;Signal;HPM_P1;HPM_P2
2023/04/22 00:00:48;;;;;;;25.88;14.88;;;10.00;99.90;;;;;;5074186;28;20029;-68
2023/04/22 00:03:14;;;;;;;26.02;15.35;;;9.90;99.90;;;;;;5073960;28;20293;-68
2023/04/22 00:05:40;;;;;;;30.42;17.23;;;9.90;99.90;;;;;;5069914;28;20103;-69
2023/04/22 00:08:07;;;;;;;28.10;16.05;;;9.90;99.90;;;;;;5073857;28;20107;-69
2023/04/22 00:10:32;;;;;;;34.95;20.83;;;9.80;99.90;;;;;;5071356;28;20044;-68
2023/04/22 00:12:58;;;;;;;32.95;19.30;;;9.80;99.90;;;;;;5071588;28;20035;-69
2023/04/22 00:15:25;;;;;;;32.28;18.48;;;9.80;99.90;;;;;;5072883;28;20542;-69
2023/04/22 00:17:51;;;;;;;35.47;19.60;;;9.80;99.90;;;;;;5069601;28;20037;-69
2023/04/22 00:20:20;;;;;;;34.50;20.42;;;9.70;99.90;;;;;;5072237;28;20036;-69
2023/04/22 00:22:45;;;;;;;38.50;22.50;;;9.70;99.90;;;;;;5073465;28;20024;-70
2023/04/22 00:25:11;;;;;;;40.53;24.92;;;9.70;99.90;;;;;;5071993;28;20074;-69
2023/04/22 00:27:37;;;;;;;41.95;23.85;;;9.60;99.90;;;;;;5067285;28;20098;-69
2023/04/22 00:30:03;;;;;;;38.08;23.40;;;9.60;99.90;;;;;;5071412;28;20049;-69
2023/04/22 00:32:28;;;;;;;47.95;26.83;;;9.60;99.90;;;;;;5070112;28;20025;-69
2023/04/22 00:34:56;;;;;;;44.05;28.42;;;9.50;99.90;;;;;;5071660;28;20029;-69
2023/04/22 00:37:22;;;;;;;39.63;24.20;;;9.50;99.90;;;;;;5070617;28;20444;-69
2023/04/22 00:39:48;;;;;;;44.17;27.33;;;9.50;99.90;;;;;;5072835;28;20029;-69
2023/04/22 00:42:14;;;;;;;46.15;27.88;;;9.40;99.90;;;;;;5072853;28;20108;-70
2023/04/22 00:44:41;;;;;;;50.08;29.75;;;9.50;99.90;;;;;;5073008;28;20037;-70
2023/04/22 00:47:08;;;;;;;47.13;28.45;;;9.40;99.90;;;;;;5073244;28;20033;-69
2023/04/22 00:49:35;;;;;;;47.25;28.38;;;9.40;99.90;;;;;;5072990;28;20055;-69
2023/04/22 00:52:01;;;;;;;47.22;29.13;;;9.40;99.90;;;;;;5073031;28;20380;-69
2023/04/22 00:54:27;;;;;;;47.63;29.08;;;9.40;99.90;;;;;;5072821;28;20024;-69
2023/04/22 00:56:54;;;;;;;51.67;30.00;;;9.40;99.90;;;;;;5072531;28;20384;-70
2023/04/22 00:59:20;;;;;;;45.97;27.98;;;9.40;99.90;;;;;;5072161;28;20025;-69
2023/04/22 01:01:45;;;;;;;49.15;27.70;;;9.30;99.90;;;;;;5072481;28;20041;-69
2023/04/22 01:04:13;;;;;;;49.58;29.08;;;9.30;99.90;;;;;;5072365;28;20115;-69
2023/04/22 01:06:40;;;;;;;52.25;30.73;;;9.30;99.90;;;;;;5072468;28;20043;-69
2023/04/22 01:09:06;;;;;;;52.40;30.25;;;9.20;99.90;;;;;;5072760;28;20045;-69
2023/04/22 01:11:33;;;;;;;54.90;30.42;;;9.20;99.90;;;;;;5072631;28;20456;-69
2023/04/22 01:13:59;;;;;;;51.88;30.02;;;9.20;99.90;;;;;;5072410;28;20137;-69
2023/04/22 01:16:27;;;;;;;55.35;31.40;;;9.10;99.90;;;;;;5072491;28;20076;-70
2023/04/22 01:18:53;;;;;;;51.10;30.10;;;9.20;99.90;;;;;;5071711;28;20036;-70
2023/04/22 01:21:19;;;;;;;55.85;30.33;;;9.10;99.90;;;;;;5071537;28;20025;-69
2023/04/22 01:23:45;;;;;;;51.58;31.55;;;9.10;99.90;;;;;;5072618;28;20055;-69
2023/04/22 01:26:11;;;;;;;52.90;29.60;;;9.00;99.90;;;;;;5072208;28;20032;-71
2023/04/22 01:28:37;;;;;;;52.67;30.98;;;9.00;99.90;;;;;;5072167;28;20155;-69
2023/04/22 01:31:02;;;;;;;54.00;29.08;;;9.00;99.90;;;;;;5072427;28;20078;-69
2023/04/22 01:33:28;;;;;;;48.83;25.90;;;8.90;99.90;;;;;;5072288;28;20388;-69
2023/04/22 01:35:54;;;;;;;53.72;30.25;;;8.90;99.90;;;;;;5071039;28;20028;-69
2023/04/22 01:38:19;;;;;;;52.42;28.30;;;8.80;99.90;;;;;;5072209;28;20100;-69
2023/04/22 01:40:45;;;;;;;49.92;27.27;;;8.80;99.90;;;;;;5067139;28;20385;-69
2023/04/22 01:43:11;;;;;;;54.33;29.75;;;8.80;99.90;;;;;;5068966;28;20457;-69
2023/04/22 01:45:36;;;;;;;52.75;29.38;;;8.70;99.90;;;;;;5071909;28;20032;-69
2023/04/22 01:48:03;;;;;;;56.15;29.08;;;8.70;99.90;;;;;;5072275;28;20060;-69
2023/04/22 01:50:29;;;;;;;57.78;32.03;;;8.70;99.90;;;;;;5072015;28;20126;-70
2023/04/22 01:52:55;;;;;;;54.28;30.63;;;8.70;99.90;;;;;;5072369;28;20103;-69
2023/04/22 01:55:21;;;;;;;58.80;30.85;;;8.70;99.90;;;;;;5070175;28;20016;-70
2023/04/22 01:57:46;;;;;;;54.83;29.70;;;8.60;99.90;;;;;;5065813;28;20021;-68
2023/04/22 02:00:12;;;;;;;60.92;31.58;;;8.60;99.90;;;;;;5071949;28;20107;-68
2023/04/22 02:02:38;;;;;;;66.68;32.92;;;8.60;99.90;;;;;;5071869;28;20089;-69
2023/04/22 02:05:06;;;;;;;58.65;31.67;;;8.60;99.90;;;;;;5072219;28;20031;-68
2023/04/22 02:07:31;;;;;;;63.55;31.23;;;8.60;99.90;;;;;;5072071;28;20036;-69
2023/04/22 02:09:57;;;;;;;58.40;31.30;;;8.60;99.90;;;;;;5071922;28;20037;-69
2023/04/22 02:12:22;;;;;;;58.28;30.65;;;8.60;99.90;;;;;;5071984;28;20369;-69
2023/04/22 02:14:48;;;;;;;59.53;31.13;;;8.50;99.90;;;;;;5070494;28;20388;-69
2023/04/22 02:17:16;;;;;;;65.00;34.42;;;8.50;99.90;;;;;;5070706;28;20036;-69
2023/04/22 02:19:42;;;;;;;64.22;33.05;;;8.50;99.90;;;;;;5076085;28;20082;-70
2023/04/22 02:22:07;;;;;;;63.63;30.55;;;8.50;99.90;;;;;;5075985;28;20029;-70
2023/04/22 02:24:33;;;;;;;66.63;33.22;;;8.50;99.90;;;;;;5075615;28;20063;-69
2023/04/22 02:26:59;;;;;;;75.95;36.53;;;8.50;99.90;;;;;;5075230;28;20029;-68
2023/04/22 02:29:24;;;;;;;67.50;32.30;;;8.40;99.90;;;;;;5075128;28;20046;-69
2023/04/22 02:31:50;;;;;;;72.03;35.05;;;8.40;99.90;;;;;;5075570;28;20048;-68
2023/04/22 02:34:15;;;;;;;59.45;32.35;;;8.40;99.90;;;;;;5075551;28;20115;-68
2023/04/22 02:36:42;;;;;;;69.05;35.00;;;8.40;99.90;;;;;;5074679;28;20131;-69
2023/04/22 02:39:07;;;;;;;74.65;34.25;;;8.30;99.90;;;;;;5074689;28;20132;-69
2023/04/22 02:41:33;;;;;;;70.28;34.88;;;8.40;99.90;;;;;;5074349;28;20021;-69
2023/04/22 02:43:58;;;;;;;67.60;33.60;;;8.40;99.90;;;;;;5074012;28;20066;-69
2023/04/22 02:46:24;;;;;;;69.55;35.17;;;8.30;99.90;;;;;;5073747;28;20024;-69
2023/04/22 02:48:50;;;;;;;71.43;34.72;;;8.30;99.90;;;;;;5075042;28;20040;-70
2023/04/22 02:51:15;;;;;;;73.20;35.45;;;8.30;99.90;;;;;;5075490;28;20036;-69
2023/04/22 02:53:41;;;;;;;75.55;36.03;;;8.30;99.90;;;;;;5074807;28;20082;-68
2023/04/22 02:56:07;;;;;;;71.60;33.83;;;8.30;99.90;;;;;;5066763;28;20082;-68
2023/04/22 02:58:33;;;;;;;71.78;34.70;;;8.30;99.90;;;;;;5066437;28;20435;-68
2023/04/22 03:00:58;;;;;;;69.03;34.13;;;8.30;99.90;;;;;;5074580;28;20028;-68
2023/04/22 03:03:27;;;;;;;70.93;33.85;;;8.20;99.90;;;;;;5075090;28;20036;-70
2023/04/22 03:05:52;;;;;;;66.85;34.00;;;8.20;99.90;;;;;;5074812;28;20025;-69
2023/04/22 03:08:19;;;;;;;72.32;35.28;;;8.20;99.90;;;;;;5074194;28;20029;-69
2023/04/22 03:10:44;;;;;;;78.07;36.22;;;8.10;99.90;;;;;;5073858;28;20181;-69
2023/04/22 03:13:12;;;;;;;73.38;34.65;;;8.10;99.90;;;;;;5074964;28;20082;-69
2023/04/22 03:15:39;;;;;;;77.38;35.85;;;8.10;99.90;;;;;;5074935;28;20028;-69
2023/04/22 03:18:05;;;;;;;72.07;34.88;;;8.10;99.90;;;;;;5074699;28;20412;-69
2023/04/22 03:20:30;;;;;;;75.18;35.22;;;8.10;99.90;;;;;;5074195;28;20028;-70
2023/04/22 03:22:56;;;;;;;77.45;34.85;;;8.10;99.90;;;;;;5074497;28;20029;-69
2023/04/22 03:25:21;;;;;;;70.82;34.55;;;8.00;99.90;;;;;;5074822;28;20158;-69
2023/04/22 03:27:47;;;;;;;78.90;36.78;;;8.00;99.90;;;;;;5074869;28;20095;-70
2023/04/22 03:30:13;;;;;;;78.55;36.60;;;8.00;99.90;;;;;;5073521;28;20044;-69
2023/04/22 03:32:38;;;;;;;78.72;38.53;;;8.00;99.90;;;;;;5074878;28;20032;-69
2023/04/22 03:35:04;;;;;;;83.18;38.28;;;7.90;99.90;;;;;;5074622;28;20525;-69
2023/04/22 03:37:30;;;;;;;87.97;37.90;;;7.90;99.90;;;;;;5074544;28;20453;-70
2023/04/22 03:39:55;;;;;;;81.93;37.22;;;7.90;99.90;;;;;;5074198;28;20024;-69
2023/04/22 03:42:21;;;;;;;83.75;38.20;;;7.90;99.90;;;;;;5074399;28;20036;-69
2023/04/22 03:44:46;;;;;;;92.18;40.05;;;7.90;99.90;;;;;;5074371;28;20495;-69
2023/04/22 03:47:12;;;;;;;90.75;39.45;;;7.90;99.90;;;;;;5074448;28;20435;-69
2023/04/22 03:49:38;;;;;;;92.88;38.92;;;7.90;99.90;;;;;;5074375;28;20040;-69
2023/04/22 03:52:03;;;;;;;82.68;38.80;;;7.80;99.90;;;;;;5074111;28;20027;-69
2023/04/22 03:54:29;;;;;;;89.47;38.95;;;7.80;99.90;;;;;;5074097;28;20104;-69
2023/04/22 03:56:54;;;;;;;93.85;38.75;;;7.80;99.90;;;;;;5073061;28;20035;-68
2023/04/22 03:59:20;;;;;;;95.15;39.58;;;7.80;99.90;;;;;;5073772;28;20366;-69
2023/04/22 04:01:46;;;;;;;90.53;38.42;;;7.80;99.90;;;;;;5074116;28;20071;-69
2023/04/22 04:04:12;;;;;;;87.53;39.55;;;7.80;99.90;;;;;;5074214;28;20086;-69
2023/04/22 04:06:37;;;;;;;90.43;40.70;;;7.80;99.90;;;;;;5074085;28;20028;-69
2023/04/22 04:09:04;;;;;;;92.45;40.33;;;7.70;99.90;;;;;;5073910;28;20464;-69
2023/04/22 04:11:30;;;;;;;93.53;39.67;;;7.70;99.90;;;;;;5073811;28;20107;-70
2023/04/22 04:13:55;;;;;;;93.15;40.83;;;7.70;99.90;;;;;;5074075;28;20198;-69
2023/04/22 04:16:21;;;;;;;96.85;41.72;;;7.70;99.90;;;;;;5073918;28;20024;-68
2023/04/22 04:18:50;;;;;;;100.25;41.15;;;7.70;99.90;;;;;;5064469;28;20032;-67
2023/04/22 04:21:16;;;;;;;106.32;43.85;;;7.70;99.90;;;;;;5073975;28;20033;-68
2023/04/22 04:23:41;;;;;;;97.88;41.78;;;7.70;99.90;;;;;;5074001;28;20025;-68
2023/04/22 04:26:07;;;;;;;103.43;44.03;;;7.70;99.90;;;;;;5071418;28;20130;-68
2023/04/22 04:28:34;;;;;;;103.25;43.90;;;7.70;99.90;;;;;;5073351;28;20059;-68
2023/04/22 04:31:03;;;;;;;98.57;42.50;;;7.70;99.90;;;;;;5074000;28;20025;-68
2023/04/22 04:33:31;;;;;;;98.32;42.05;;;7.70;99.90;;;;;;5072432;28;20399;-68
2023/04/22 04:35:58;;;;;;;104.55;44.03;;;7.60;99.90;;;;;;5073502;28;20035;-68
2023/04/22 04:38:24;;;;;;;110.47;44.50;;;7.60;99.90;;;;;;5073569;28;20024;-68
2023/04/22 04:40:50;;;;;;;101.85;44.42;;;7.70;99.90;;;;;;5072609;28;20020;-68
2023/04/22 04:43:16;;;;;;;104.65;45.67;;;7.70;99.90;;;;;;5073162;28;20028;-68
2023/04/22 04:45:45;;;;;;;101.63;43.08;;;7.70;99.90;;;;;;5073527;28;20433;-68
2023/04/22 04:48:15;;;;;;;101.70;43.83;;;7.80;99.90;;;;;;5072974;28;20338;-68
2023/04/22 04:50:41;;;;;;;101.30;41.72;;;7.80;99.90;;;;;;5072983;28;20119;-68
2023/04/22 04:53:07;;;;;;;103.20;42.05;;;7.90;99.90;;;;;;5073557;28;20441;-68
2023/04/22 04:55:33;;;;;;;98.45;42.17;;;8.00;99.90;;;;;;5071619;28;20108;-68
2023/04/22 04:57:58;;;;;;;109.43;44.67;;;8.00;99.90;;;;;;5064893;28;20119;-68
2023/04/22 05:00:24;;;;;;;179.77;49.63;;;8.10;99.90;;;;;;5069338;28;20100;-68
2023/04/22 05:02:50;;;;;;;95.55;41.08;;;8.20;99.90;;;;;;5072515;28;20024;-68
2023/04/22 05:05:15;;;;;;;91.90;40.78;;;8.20;99.90;;;;;;5071005;28;20032;-68
2023/04/22 05:07:41;;;;;;;88.50;40.25;;;8.30;99.90;;;;;;5071895;28;20073;-68
2023/04/22 05:10:07;;;;;;;83.75;39.88;;;8.40;99.90;;;;;;5067365;28;20708;-68
2023/04/22 05:12:33;;;;;;;86.00;38.60;;;8.40;99.90;;;;;;5070910;28;20028;-69
2023/04/22 05:14:58;;;;;;;75.75;38.15;;;8.50;99.90;;;;;;5073443;28;20302;-69
2023/04/22 05:17:24;;;;;;;79.03;38.35;;;8.50;99.90;;;;;;5072158;28;20166;-68
2023/04/22 05:19:50;;;;;;;73.68;37.05;;;8.60;99.90;;;;;;5072471;28;20039;-68
2023/04/22 05:22:16;;;;;;;65.90;33.17;;;8.70;99.90;;;;;;5072134;28;20031;-68
2023/04/22 05:24:42;;;;;;;63.17;33.42;;;8.80;99.90;;;;;;5070841;28;20099;-68
2023/04/22 05:27:08;;;;;;;58.72;33.42;;;8.90;99.90;;;;;;5071667;28;20108;-68
2023/04/22 05:29:34;;;;;;;60.88;33.65;;;9.00;99.90;;;;;;5071338;28;20076;-68
2023/04/22 05:31:59;;;;;;;59.45;33.20;;;9.10;99.90;;;;;;5071545;28;20324;-68
2023/04/22 05:34:25;;;;;;;55.03;30.67;;;9.20;99.90;;;;;;5071178;28;20115;-68
2023/04/22 05:36:51;;;;;;;56.55;31.02;;;9.30;99.90;;;;;;5067318;28;20021;-68
2023/04/22 05:39:17;;;;;;;54.47;30.85;;;9.50;99.90;;;;;;5070099;28;20041;-68
2023/04/22 05:41:44;;;;;;;51.10;29.02;;;9.60;99.90;;;;;;5071378;28;20025;-69
2023/04/22 05:44:10;;;;;;;48.13;29.58;;;9.70;99.90;;;;;;5071413;28;20020;-69
2023/04/22 05:46:35;;;;;;;50.33;30.00;;;9.80;99.90;;;;;;5071002;28;20043;-68
2023/04/22 05:49:01;;;;;;;46.63;29.00;;;9.80;99.90;;;;;;5070618;28;20036;-68
2023/04/22 05:51:26;;;;;;;49.65;29.75;;;9.90;99.90;;;;;;5070689;28;20020;-69
2023/04/22 05:53:52;;;;;;;47.00;29.00;;;10.00;99.90;;;;;;5070139;28;20443;-69
2023/04/22 05:56:19;;;;;;;47.25;28.30;;;10.10;99.90;;;;;;5068376;28;20383;-69
2023/04/22 05:58:45;;;;;;;44.17;28.17;;;10.10;99.90;;;;;;5070615;28;20020;-68
2023/04/22 06:01:11;;;;;;;46.15;27.05;;;10.20;99.90;;;;;;5070803;28;20086;-68
2023/04/22 06:03:37;;;;;;;48.75;29.80;;;10.20;99.90;;;;;;5070918;28;20028;-68
2023/04/22 06:06:03;;;;;;;47.83;28.83;;;10.20;99.90;;;;;;5071014;28;20028;-69
2023/04/22 06:08:30;;;;;;;46.45;28.08;;;10.20;99.90;;;;;;5069823;28;20021;-69
2023/04/22 06:10:56;;;;;;;48.83;28.63;;;10.30;99.90;;;;;;5071116;28;20024;-69
2023/04/22 06:13:21;;;;;;;45.95;28.40;;;10.30;99.90;;;;;;5071099;28;20099;-68
2023/04/22 06:15:47;;;;;;;46.13;27.50;;;10.40;99.90;;;;;;5071123;28;20021;-70
2023/04/22 06:18:14;;;;;;;47.10;29.95;;;10.50;99.90;;;;;;5070325;28;20481;-69
2023/04/22 06:20:41;;;;;;;48.05;27.95;;;10.50;99.90;;;;;;5069603;28;20473;-69
2023/04/22 06:23:07;;;;;;;47.78;29.25;;;10.60;99.90;;;;;;5069409;28;20025;-68
2023/04/22 06:25:32;;;;;;;46.47;28.52;;;10.60;99.90;;;;;;5071094;28;20115;-69
2023/04/22 06:27:58;;;;;;;47.20;28.52;;;10.60;99.90;;;;;;5067812;28;20438;-69
2023/04/22 06:30:24;;;;;;;46.90;28.52;;;10.70;99.90;;;;;;5070662;28;20071;-69
2023/04/22 06:32:51;;;;;;;45.08;27.83;;;10.80;99.90;;;;;;5070302;28;20500;-69
2023/04/22 06:35:17;;;;;;;44.15;27.33;;;10.90;99.90;;;;;;5070342;28;20017;-69
2023/04/22 06:37:43;;;;;;;39.53;25.83;;;11.00;99.90;;;;;;5070090;28;20033;-68
2023/04/22 06:40:09;;;;;;;43.00;26.98;;;11.10;99.90;;;;;;5069421;28;20028;-69
2023/04/22 06:42:35;;;;;;;38.53;25.15;;;11.30;99.90;;;;;;5070212;28;20074;-70
2023/04/22 06:45:02;;;;;;;40.45;25.17;;;11.50;99.90;;;;;;5069787;28;20028;-68
2023/04/22 06:47:27;;;;;;;40.83;25.55;;;11.70;99.90;;;;;;5071317;28;20388;-69
2023/04/22 06:49:53;;;;;;;38.15;24.88;;;11.90;99.90;;;;;;5071248;28;20036;-68
2023/04/22 06:52:20;;;;;;;38.63;24.15;;;12.10;99.90;;;;;;5071414;28;20029;-69
2023/04/22 06:54:46;;;;;;;34.88;23.45;;;12.40;99.90;;;;;;5071731;28;20488;-68
2023/04/22 06:57:11;;;;;;;36.33;23.80;;;12.60;99.90;;;;;;5069717;28;20175;-68
2023/04/22 06:59:37;;;;;;;36.28;22.52;;;12.80;99.90;;;;;;5070867;28;20468;-69
2023/04/22 07:02:02;;;;;;;34.45;21.92;;;12.90;99.90;;;;;;5069988;28;20033;-68
2023/04/22 07:04:30;;;;;;;32.60;20.83;;;13.10;99.90;;;;;;5069121;28;20390;-69
2023/04/22 07:06:55;;;;;;;31.70;20.23;;;13.20;99.90;;;;;;5073814;28;20029;-69
2023/04/22 07:09:21;;;;;;;32.25;21.33;;;13.50;99.90;;;;;;5073149;28;20041;-69
2023/04/22 07:11:46;;;;;;;33.25;20.75;;;13.70;99.90;;;;;;5073954;28;20031;-70
2023/04/22 07:14:12;;;;;;;32.53;20.15;;;13.90;99.90;;;;;;5073633;28;20025;-68
2023/04/22 07:16:38;;;;;;;29.38;20.23;;;13.90;99.90;;;;;;5069899;28;20033;-70
2023/04/22 07:19:04;;;;;;;29.88;19.08;;;13.90;99.90;;;;;;5073349;28;20387;-69
2023/04/22 07:21:31;;;;;;;28.83;20.10;;;14.00;99.90;;;;;;5072412;28;20082;-70
2023/04/22 07:23:57;;;;;;;29.75;19.63;;;14.20;99.90;;;;;;5073312;28;20028;-70
2023/04/22 07:26:23;;;;;;;31.70;19.45;;;14.50;99.90;;;;;;5073323;28;20035;-70
2023/04/22 07:28:48;;;;;;;28.63;18.33;;;14.80;99.90;;;;;;5071189;28;20045;-70
2023/04/22 07:31:14;;;;;;;30.23;18.50;;;15.10;99.90;;;;;;5072826;28;20449;-70
2023/04/22 07:33:40;;;;;;;28.30;17.48;;;15.30;99.90;;;;;;5073082;28;20025;-69
2023/04/22 07:36:06;;;;;;;27.63;18.35;;;15.50;99.90;;;;;;5072693;28;20024;-69
2023/04/22 07:38:31;;;;;;;28.85;18.55;;;15.80;99.90;;;;;;5073530;28;20103;-70
2023/04/22 07:40:57;;;;;;;30.15;19.70;;;16.10;99.90;;;;;;5073277;28;20108;-70
2023/04/22 07:43:22;;;;;;;28.48;18.98;;;16.50;99.90;;;;;;5073330;28;20021;-71
2023/04/22 07:45:48;;;;;;;25.00;15.70;;;16.80;99.90;;;;;;5073246;28;20021;-70
2023/04/22 07:48:13;;;;;;;24.92;15.50;;;17.20;99.90;;;;;;5072476;28;20020;-70
2023/04/22 07:50:39;;;;;;;23.90;15.77;;;17.50;99.90;;;;;;5069018;28;20053;-70
2023/04/22 07:53:05;;;;;;;26.58;16.23;;;17.80;99.90;;;;;;5071898;28;20104;-70
2023/04/22 07:55:30;;;;;;;23.85;15.05;;;18.20;99.90;;;;;;5059889;28;20029;-70
2023/04/22 07:57:56;;;;;;;22.92;15.45;;;18.70;99.90;;;;;;5074725;28;20671;-71
2023/04/22 08:00:22;;;;;;;22.15;14.43;;;19.20;99.90;;;;;;5073858;28;20518;-70
2023/04/22 08:02:47;;;;;;;22.88;14.20;;;19.70;99.90;;;;;;5074439;28;20088;-71
2023/04/22 08:05:13;;;;;;;22.17;14.50;;;20.20;99.90;;;;;;5073776;28;20033;-70
2023/04/22 08:07:39;;;;;;;21.08;13.18;;;20.40;99.90;;;;;;5072650;28;20025;-71
2023/04/22 08:10:05;;;;;;;22.05;14.88;;;20.50;99.90;;;;;;5072364;28;20400;-71
2023/04/22 08:12:31;;;;;;;21.23;13.95;;;20.90;99.90;;;;;;5064230;28;20108;-70
2023/04/22 08:14:57;;;;;;;23.75;15.02;;;21.50;99.90;;;;;;5070665;28;20115;-71
2023/04/22 08:17:22;;;;;;;18.83;12.18;;;22.30;99.90;;;;;;5072658;28;20016;-70
2023/04/22 08:19:48;;;;;;;21.70;12.98;;;23.20;99.10;;;;;;5073523;28;20032;-70
2023/04/22 08:22:14;;;;;;;18.25;11.20;;;24.40;98.30;;;;;;5073448;28;20032;-70
2023/04/22 08:24:40;;;;;;;16.45;10.48;;;25.80;96.20;;;;;;5073685;28;20074;-70
2023/04/22 08:27:06;;;;;;;15.60;10.77;;;26.90;95.60;;;;;;5073284;28;20052;-70
2023/04/22 08:29:32;;;;;;;15.40;11.25;;;28.10;93.30;;;;;;5073130;28;20044;-70
2023/04/22 08:31:58;;;;;;;15.65;10.25;;;28.90;91.30;;;;;;5072735;28;20028;-70
2023/04/22 08:34:25;;;;;;;17.27;10.48;;;29.60;89.40;;;;;;5073482;28;20035;-70
2023/04/22 08:36:50;;;;;;;15.32;9.82;;;30.20;88.90;;;;;;5073650;28;20033;-70
2023/04/22 08:39:17;;;;;;;12.50;8.52;;;30.80;87.00;;;;;;5073092;28;20115;-70
2023/04/22 08:41:43;;;;;;;11.25;8.65;;;31.30;83.10;;;;;;5072214;28;20036;-70
2023/04/22 08:44:10;;;;;;;12.60;8.70;;;31.60;79.80;;;;;;5073421;28;20123;-70
2023/04/22 08:46:36;;;;;;;12.05;8.05;;;31.90;80.80;;;;;;5072801;28;20044;-70
2023/04/22 08:49:02;;;;;;;8.60;5.90;;;32.40;79.00;;;;;;5070809;28;20452;-70
2023/04/22 08:51:32;;;;;;;9.00;6.78;;;32.50;72.60;;;;;;5058326;28;20082;-70
2023/04/22 08:53:58;;;;;;;11.88;7.68;;;31.70;70.70;;;;;;5072928;28;20433;-69
2023/04/22 08:56:24;;;;;;;13.13;8.00;;;30.90;73.90;;;;;;5072835;28;20083;-70
2023/04/22 08:58:51;;;;;;;14.07;9.40;;;30.40;74.40;;;;;;5073055;28;20029;-71
2023/04/22 09:01:17;;;;;;;15.98;10.32;;;29.90;72.90;;;;;;5069187;28;20037;-70
2023/04/22 09:03:44;;;;;;;14.90;10.48;;;29.20;76.20;;;;;;5067389;28;20361;-69
2023/04/22 09:06:10;;;;;;;13.65;8.80;;;28.70;77.50;;;;;;5063726;28;20028;-69
2023/04/22 09:08:36;;;;;;;15.88;10.27;;;28.60;78.10;;;;;;5072852;28;20033;-69
2023/04/22 09:11:02;;;;;;;13.13;8.02;;;29.10;77.70;;;;;;5072369;28;20035;-70
2023/04/22 09:13:28;;;;;;;13.55;8.95;;;30.10;76.60;;;;;;5071779;28;20024;-70
2023/04/22 09:15:54;;;;;;;11.20;7.68;;;31.30;75.20;;;;;;5072437;28;20095;-69
2023/04/22 09:18:20;;;;;;;12.57;8.45;;;32.20;70.70;;;;;;5072114;28;20032;-69
2023/04/22 09:20:48;;;;;;;13.15;8.60;;;32.40;70.50;;;;;;5071654;28;20082;-70
2023/04/22 09:23:14;;;;;;;10.98;8.00;;;32.60;68.90;;;;;;5072368;28;20028;-69
2023/04/22 09:25:40;;;;;;;10.93;7.65;;;32.20;69.20;;;;;;5072437;28;20020;-70
2023/04/22 09:28:11;;;;;;;15.75;10.25;;;32.10;69.40;;;;;;5072416;28;20138;-70
2023/04/22 09:30:37;;;;;;;10.73;7.40;;;32.30;68.70;;;;;;5071013;28;20055;-71
2023/04/22 09:33:06;;;;;;;13.90;7.30;;;32.30;68.10;;;;;;5071076;28;20128;-72
2023/04/22 09:35:35;;;;;;;9.98;6.60;;;31.90;68.30;;;;;;5072087;28;20633;-68
2023/04/22 09:38:05;;;;;;;10.27;6.93;;;31.50;68.30;;;;;;5070702;28;20586;-70
2023/04/22 09:40:31;;;;;;;10.55;7.00;;;31.50;68.90;;;;;;5072365;28;20036;-70
2023/04/22 09:42:59;;;;;;;13.10;8.00;;;31.70;69.20;;;;;;5071488;28;20037;-69
2023/04/22 09:45:32;;;;;;;10.98;7.57;;;32.20;68.10;;;;;;5071032;28;20116;-70
2023/04/22 09:48:17;;;;;;;11.80;8.02;;;32.60;67.30;;;;;;5060871;28;20100;-69
2023/04/22 09:50:49;;;;;;;12.10;8.55;;;32.40;67.20;;;;;;5068912;28;20434;-70
2023/04/22 09:53:17;;;;;;;12.80;8.40;;;32.10;68.50;;;;;;5055278;28;20115;-69
2023/04/22 09:55:50;;;;;;;11.82;7.60;;;31.50;67.10;;;;;;5071536;28;20025;-69
2023/04/22 09:58:18;;;;;;;15.05;10.27;;;30.50;68.40;;;;;;5071575;28;20052;-71
2023/04/22 10:00:53;;;;;;;11.32;7.60;;;29.20;69.20;;;;;;5070730;28;20032;-71
2023/04/22 10:03:19;;;;;;;13.20;8.60;;;28.00;70.20;;;;;;5055698;28;20033;-70
2023/04/22 10:05:45;;;;;;;12.27;8.45;;;26.60;72.20;;;;;;5066187;28;20044;-70
2023/04/22 10:08:15;;;;;;;13.43;8.35;;;25.60;74.90;;;;;;5064928;28;20028;-71
2023/04/22 10:10:42;;;;;;;14.98;8.93;;;24.80;76.10;;;;;;5066421;28;20028;-71
2023/04/22 10:13:08;;;;;;;15.00;9.27;;;24.10;77.60;;;;;;5071465;28;20029;-70
2023/04/22 10:15:43;;;;;;;14.20;8.63;;;23.60;78.10;;;;;;5071572;28;20051;-71
2023/04/22 10:18:17;;;;;;;14.40;8.48;;;23.00;79.90;;;;;;5071805;28;20021;-70
2023/04/22 10:20:44;;;;;;;20.08;12.52;;;22.50;81.20;;;;;;5070452;28;20476;-70
2023/04/22 10:23:21;;;;;;;14.30;9.07;;;22.20;82.40;;;;;;5070360;28;20060;-69
2023/04/22 10:25:50;;;;;;;20.33;12.45;;;21.90;83.40;;;;;;5071335;28;20102;-69
2023/04/22 10:28:17;;;;;;;17.42;9.98;;;21.80;84.10;;;;;;5071385;28;20105;-70
2023/04/22 10:30:42;;;;;;;17.63;10.40;;;21.70;87.40;;;;;;5070408;28;20369;-70
2023/04/22 10:33:20;;;;;;;16.83;9.45;;;21.60;87.90;;;;;;5070940;28;20024;-69
2023/04/22 10:36:04;;;;;;;18.73;11.00;;;21.70;88.10;;;;;;5070892;28;20063;-69
2023/04/22 10:38:39;;;;;;;18.98;9.40;;;21.90;88.60;;;;;;5069475;28;20028;-70
2023/04/22 10:41:06;;;;;;;19.73;10.57;;;22.20;87.00;;;;;;5074594;28;20033;-70
2023/04/22 10:44:05;;;;;;;17.00;9.15;;;22.50;85.60;;;;;;5074479;28;20025;-69
2023/04/22 10:46:34;;;;;;;17.85;10.07;;;22.70;85.10;;;;;;5068932;28;20079;-70
2023/04/22 10:49:10;;;;;;;20.13;11.32;;;22.50;84.50;;;;;;5074957;28;20052;-70
2023/04/22 10:51:49;;;;;;;17.15;10.13;;;22.30;85.20;;;;;;5073510;28;20035;-70
2023/04/22 10:57:17;;;;;;;18.25;10.52;;;21.70;86.70;;;;;;5074349;28;20496;-69
2023/04/22 10:59:59;;;;;;;18.67;10.85;;;21.40;87.60;;;;;;5074025;28;20052;-70
2023/04/22 11:02:25;;;;;;;20.92;11.10;;;21.00;88.60;;;;;;5074176;28;20032;-69
2023/04/22 11:04:53;;;;;;;19.80;11.43;;;20.60;89.20;;;;;;5074907;28;20035;-69
2023/04/22 11:07:26;;;;;;;20.92;12.10;;;20.20;90.00;;;;;;5074670;28;20459;-71
2023/04/22 11:09:58;;;;;;;20.10;11.90;;;19.70;90.50;;;;;;5059514;28;20560;-69
2023/04/22 11:12:40;;;;;;;20.55;11.80;;;19.30;91.30;;;;;;5074080;28;20107;-69
2023/04/22 11:15:18;;;;;;;20.17;11.73;;;19.00;91.50;;;;;;5072838;28;20039;-70
2023/04/22 11:17:52;;;;;;;19.95;11.90;;;18.60;91.70;;;;;;5070645;28;20112;-71
2023/04/22 11:20:18;;;;;;;22.95;13.57;;;18.30;92.20;;;;;;5067458;28;20099;-71
2023/04/22 11:22:47;;;;;;;25.13;13.07;;;18.00;92.80;;;;;;5067671;28;20125;-70
2023/04/22 11:25:13;;;;;;;23.33;13.13;;;17.80;93.30;;;;;;5069202;28;20035;-72
2023/04/22 11:27:40;;;;;;;22.80;13.60;;;17.60;93.80;;;;;;5073488;28;20028;-71
2023/04/22 11:30:11;;;;;;;24.15;14.77;;;17.40;94.40;;;;;;5073905;28;20499;-70
2023/04/22 11:32:38;;;;;;;23.67;14.50;;;17.20;95.20;;;;;;5074069;28;20033;-70
2023/04/22 11:35:06;;;;;;;26.58;14.73;;;17.00;96.40;;;;;;5073878;28;20101;-70
2023/04/22 11:37:49;;;;;;;26.25;15.65;;;16.80;97.30;;;;;;5072772;28;20047;-70
2023/04/22 11:40:20;;;;;;;24.90;14.95;;;16.60;98.50;;;;;;5069950;28;20117;-70
2023/04/22 11:42:47;;;;;;;26.08;15.95;;;16.40;99.60;;;;;;5073361;28;20033;-70
2023/04/22 11:45:15;;;;;;;26.73;16.38;;;16.30;99.90;;;;;;5073712;28;20040;-71
2023/04/22 11:47:41;;;;;;;24.45;14.90;;;16.20;99.90;;;;;;5073367;28;20110;-69
2023/04/22 11:50:12;;;;;;;26.67;15.95;;;16.00;99.90;;;;;;5071852;28;20032;-69
2023/04/22 11:52:55;;;;;;;25.92;16.38;;;15.90;99.90;;;;;;5063936;28;20309;-70
2023/04/22 11:55:32;;;;;;;26.88;16.58;;;15.70;99.90;;;;;;5073499;28;20039;-70
2023/04/22 11:58:00;;;;;;;26.00;14.82;;;15.60;99.90;;;;;;5072982;28;20104;-69
2023/04/22 12:00:33;;;;;;;28.73;16.88;;;15.50;99.90;;;;;;5068026;28;20516;-69
2023/04/22 12:03:07;;;;;;;31.05;16.73;;;15.40;99.90;;;;;;5054220;28;20025;-68
2023/04/22 12:05:40;;;;;;;29.92;18.00;;;15.30;99.90;;;;;;5072115;28;20035;-68
2023/04/22 12:08:12;;;;;;;32.92;17.70;;;15.10;99.90;;;;;;5073188;28;20491;-68
2023/04/22 12:10:40;;;;;;;31.67;18.30;;;15.00;99.90;;;;;;5071764;28;20025;-67
2023/04/22 12:13:06;;;;;;;30.27;18.67;;;14.90;99.90;;;;;;5068892;28;20036;-68
2023/04/22 12:15:42;;;;;;;35.15;20.48;;;14.70;99.90;;;;;;5072448;28;20057;-68
2023/04/22 12:18:08;;;;;;;32.40;20.60;;;14.40;99.90;;;;;;5072154;28;20036;-67
2023/04/22 12:24:11;;;;;;;37.50;21.95;;;14.00;99.90;;;;;;5066266;28;20040;-67
2023/04/22 12:26:36;;;;;;;39.75;22.90;;;13.80;99.90;;;;;;5069631;28;20032;-68
2023/04/22 12:29:13;;;;;;;36.08;22.63;;;13.70;99.90;;;;;;5070101;28;20040;-68
2023/04/22 12:31:58;;;;;;;38.58;23.55;;;13.60;99.90;;;;;;5063794;28;20036;-68
2023/04/22 12:34:30;;;;;;;38.90;22.40;;;13.50;99.90;;;;;;5066180;28;20029;-68
2023/04/22 12:37:12;;;;;;;40.13;23.95;;;13.30;99.90;;;;;;5069451;28;20067;-67
2023/04/22 12:39:37;;;;;;;41.78;24.48;;;13.20;99.90;;;;;;5070290;28;20077;-67